Brussels Airport

EBBR · Vlaams-Brabant, Flanders, 比利时

罗盘
风向 的 风向 150° 布鲁塞尔机场 7L/25R
风: 3 kt, 1 beaufort


3 kt
改变
0 ft 1.000 2.000 3.000 4.000 5.000
CAVOK
METAR EBBR 130120Z 15003KT CAVOK 09/07 Q1019 NOSIG

METAR 布鲁塞尔机场 - EBBR/BRU

布鲁塞尔机场是,比利时中的大型机场。 该机场位于纬度50,89987和经度4,49258。 该机场有3条跑道: 7L/25R, 1/19 和 7R/25L. 本场的ICAO机场代码为EBBR。 该机场的IATA代码为BRU。 机场在Bruxelles FIR中。

该航空气象观测是针对布鲁塞尔机场在2024年6月13日 03:20, 当地时间进行的。

机场观察

风向为150°,速度为3 kt。

天气为CAVOK。这意味着在5.000 ft或MSA(最低安全高度)以下(以较高者为准)以下没有云。这也意味着没有观测到积雨云或高耸的积云,可见度为10 km 或者更多或更高。此外,不会有雾,降雨或其他重要天气。

温度为9 °C,阵风为7 °C。 露点为7 °C,相对湿度为87%。 海平面上的气压为1019 hPa (QNH)。

白天

今天,太阳从05:27升起,在21:56降落。 这适用于布鲁塞尔机场,世界夏令时可能有所不同。 当地时间与世界标准时间之间的时差为+2 小时。 夏令时目前正在进行中。

公司介绍

在这个机场,你可以找到飞行学校。 本场上唯一已知的公司是Hub Air Aviation Academy。

体会

到Vliegles.nl去找飞行课程,跳伞和其他飞行体验。 浏览页面,了解布鲁塞尔机场附近所有可用的活动。 你也可以使用搜索功能来寻找你所在地附近的特定飞行课程、跳伞或其他飞行体验。

跑道

Id 标题 侧风 逆风 侧风 %
7L/25R 065°-245° 3 kt 100 %
1/19 014°-194° 2 kt 2 kt 69 %
7R/25L 070°-250° 3 kt 98 %

逆风成分最大的方向会被突出显示,并用于横风计算。 这并不一定意味着这个方向在使用。

温度 & 天气

温度 9 °C
露点 7 °C
相对湿度 87%
风寒 7 °C
Kp-index 1 (0-9)

白天

日出
05:27 (1:39)
中午
13:42
日落
21:56

小工具

你想在你的网站上有一个关于布鲁塞尔机场的当前航空天气(METAR)的小部件吗?

显示HTML代码
报告变更